Time;durP1;ratioP1;P1;durP2;ratioP2;P2;SDS_P1;SDS_P2;PMS_P1;PMS_P2;Temp;Humidity;BMP_temperature;BMP_pressure;BME280_temperature;BME280_humidity;BME280_pressure;Samples;Min_cycle;Max_cycle;Signal;HPM_P1;HPM_P2
2022/04/03 00:00:35;;;;;;;7.05;5.80;;;;;;;2.29;74.15;98655.31;5091474;28;20028;-47
2022/04/03 00:03:02;;;;;;;6.50;5.70;;;;;;;2.30;73.48;98657.75;5091430;28;20034;-46
2022/04/03 00:05:28;;;;;;;6.70;5.47;;;;;;;2.32;73.26;98653.25;5092710;28;20028;-47
2022/04/03 00:07:56;;;;;;;6.10;5.07;;;;;;;2.32;73.36;98655.03;5092745;28;20046;-46
2022/04/03 00:10:22;;;;;;;9.60;5.97;;;;;;;2.35;73.48;98665.09;5092579;28;20020;-46
2022/04/03 00:12:49;;;;;;;7.20;5.75;;;;;;;2.38;73.18;98659.63;5091592;28;20028;-45
2022/04/03 00:15:15;;;;;;;10.05;5.55;;;;;;;2.39;73.69;98658.63;5092610;28;20103;-49
2022/04/03 00:17:42;;;;;;;9.02;5.40;;;;;;;2.39;73.70;98654.28;5091246;28;20024;-47
2022/04/03 00:20:09;;;;;;;7.38;5.53;;;;;;;2.39;73.61;98651.72;5092480;28;20022;-48
2022/04/03 00:22:35;;;;;;;6.63;5.05;;;;;;;2.37;73.14;98657.97;5092450;28;20035;-46
2022/04/03 00:25:02;;;;;;;8.45;5.55;;;;;;;2.37;73.47;98651.03;5091123;28;20020;-47
2022/04/03 00:27:27;;;;;;;6.32;5.22;;;;;;;2.37;73.30;98648.44;5092392;28;20031;-47
2022/04/03 00:29:53;;;;;;;8.35;5.47;;;;;;;2.33;73.24;98646.28;5090685;28;20535;-48
2022/04/03 00:32:19;;;;;;;5.65;5.05;;;;;;;2.32;73.37;98650.66;5092278;28;20486;-46
2022/04/03 00:34:46;;;;;;;6.45;5.65;;;;;;;2.33;73.21;98643.69;5092305;28;20500;-47
2022/04/03 00:37:11;;;;;;;6.45;4.85;;;;;;;2.33;72.60;98644.50;5092111;28;20153;-49
2022/04/03 00:39:37;;;;;;;7.15;5.35;;;;;;;2.29;72.97;98640.59;5092194;28;20103;-46
2022/04/03 00:42:08;;;;;;;6.38;5.40;;;;;;;2.24;73.20;98634.25;5092134;28;20095;-48
2022/04/03 00:44:35;;;;;;;6.22;5.63;;;;;;;2.22;72.88;98631.81;5090063;28;20031;-46
2022/04/03 00:47:03;;;;;;;6.20;5.20;;;;;;;2.20;73.02;98634.53;5092118;28;20017;-46
2022/04/03 00:49:29;;;;;;;6.53;5.28;;;;;;;2.18;72.40;98639.03;5092057;28;20104;-48
2022/04/03 00:51:55;;;;;;;9.55;6.00;;;;;;;2.17;72.37;98628.81;5091956;28;20024;-47
2022/04/03 00:54:21;;;;;;;6.57;5.70;;;;;;;2.12;72.29;98625.88;5091952;28;20077;-47
2022/04/03 00:56:47;;;;;;;5.97;5.35;;;;;;;2.11;72.33;98637.19;5091907;28;20573;-48
2022/04/03 00:59:14;;;;;;;6.82;5.95;;;;;;;2.10;72.32;98633.78;5091963;28;20024;-47
2022/04/03 01:01:44;;;;;;;6.15;5.55;;;;;;;2.11;72.78;98632.00;5091903;28;20028;-48
2022/04/03 01:04:11;;;;;;;7.40;6.03;;;;;;;2.12;72.93;98629.28;5091874;28;20031;-47
2022/04/03 01:06:37;;;;;;;6.18;5.68;;;;;;;2.12;72.50;98629.28;5091864;28;20429;-47
2022/04/03 01:09:04;;;;;;;6.32;5.40;;;;;;;2.10;72.52;98628.63;5091779;28;20110;-46
2022/04/03 01:11:31;;;;;;;8.23;5.15;;;;;;;2.09;72.63;98626.97;5091728;28;20016;-47
2022/04/03 01:13:57;;;;;;;7.80;5.90;;;;;;;2.15;72.22;98633.34;5091815;28;20058;-46
2022/04/03 01:16:23;;;;;;;6.95;5.55;;;;;;;2.17;72.60;98634.00;5091702;28;20024;-46
2022/04/03 01:18:50;;;;;;;6.60;5.45;;;;;;;2.18;72.79;98630.47;5091726;28;20031;-45
2022/04/03 01:21:18;;;;;;;6.90;5.65;;;;;;;2.16;72.71;98630.59;5091720;28;20054;-48
2022/04/03 01:23:44;;;;;;;6.53;5.70;;;;;;;2.17;72.96;98626.25;5091738;28;20020;-48
2022/04/03 01:26:10;;;;;;;7.40;5.57;;;;;;;2.16;73.05;98619.44;5091673;28;20123;-46
2022/04/03 01:28:36;;;;;;;6.93;6.22;;;;;;;2.15;72.54;98622.97;5091421;28;20458;-46
2022/04/03 01:31:02;;;;;;;6.63;5.97;;;;;;;2.19;73.27;98625.16;5090303;28;20032;-46
2022/04/03 01:33:28;;;;;;;7.30;5.95;;;;;;;2.23;73.30;98625.66;5091572;28;20435;-48
2022/04/03 01:35:54;;;;;;;7.47;6.68;;;;;;;2.26;73.62;98627.94;5091545;28;20020;-47
2022/04/03 01:38:19;;;;;;;7.22;6.13;;;;;;;2.28;73.46;98620.84;5090267;28;20013;-48
2022/04/03 01:40:45;;;;;;;7.22;6.00;;;;;;;2.29;73.45;98625.03;5091533;28;20497;-47
2022/04/03 01:43:11;;;;;;;6.53;5.80;;;;;;;2.29;73.44;98632.00;5091522;28;20158;-46
2022/04/03 01:45:38;;;;;;;7.10;6.40;;;;;;;2.31;73.06;98625.72;5090169;28;20077;-48
2022/04/03 01:48:05;;;;;;;7.15;6.45;;;;;;;2.34;72.97;98627.22;5091482;28;20056;-46
2022/04/03 01:50:31;;;;;;;7.18;6.47;;;;;;;2.32;72.89;98629.13;5091365;28;20032;-50
2022/04/03 01:52:57;;;;;;;11.02;6.82;;;;;;;2.30;72.23;98631.06;5090093;28;20386;-48
2022/04/03 01:55:29;;;;;;;7.30;6.60;;;;;;;2.32;72.94;98629.13;5091815;28;20020;-46
2022/04/03 01:57:55;;;;;;;8.27;7.47;;;;;;;2.33;73.57;98635.94;5095295;28;20023;-46
2022/04/03 02:00:22;;;;;;;7.78;6.95;;;;;;;2.32;73.32;98635.13;5093825;28;20036;-46
2022/04/03 02:02:49;;;;;;;7.32;6.22;;;;;;;2.36;73.26;98633.06;5095163;28;20026;-46
2022/04/03 02:05:14;;;;;;;6.90;6.20;;;;;;;2.36;73.11;98633.88;5095031;28;20083;-46
2022/04/03 02:07:40;;;;;;;9.35;7.25;;;;;;;2.35;73.10;98629.63;5095060;28;20069;-46
2022/04/03 02:10:12;;;;;;;8.68;7.78;;;;;;;2.36;72.80;98627.88;5094882;28;20027;-47
2022/04/03 02:12:39;;;;;;;8.80;7.90;;;;;;;2.33;73.06;98631.56;5094904;28;20035;-48
2022/04/03 02:15:11;;;;;;;8.52;7.63;;;;;;;2.31;73.33;98627.50;5094853;28;20370;-49
2022/04/03 02:17:38;;;;;;;9.30;8.02;;;;;;;2.26;73.06;98627.94;5094921;28;20417;-48
2022/04/03 02:20:05;;;;;;;9.73;7.95;;;;;;;2.23;72.93;98623.06;5094711;28;20581;-48
2022/04/03 02:22:31;;;;;;;8.82;8.02;;;;;;;2.18;72.79;98612.34;5094769;28;20090;-48
2022/04/03 02:24:56;;;;;;;9.23;8.32;;;;;;;2.14;73.58;98619.59;5093437;28;20129;-46
2022/04/03 02:27:22;;;;;;;10.75;8.48;;;;;;;2.09;73.42;98619.22;5094604;28;20028;-47
2022/04/03 02:29:48;;;;;;;10.15;8.05;;;;;;;2.04;73.80;98616.25;5094329;28;20138;-47
2022/04/03 02:32:16;;;;;;;9.75;8.32;;;;;;;2.00;73.26;98615.75;5094548;28;20035;-47
2022/04/03 02:34:41;;;;;;;8.82;7.97;;;;;;;2.01;73.13;98613.94;5094577;28;20093;-47
2022/04/03 02:37:07;;;;;;;9.55;7.53;;;;;;;2.03;74.28;98617.22;5094473;28;20024;-46
2022/04/03 02:39:33;;;;;;;10.88;8.32;;;;;;;2.04;74.02;98624.03;5093139;28;20493;-48
2022/04/03 02:41:59;;;;;;;12.13;8.70;;;;;;;2.06;73.35;98622.09;5094381;28;20028;-48
2022/04/03 02:44:24;;;;;;;9.98;7.68;;;;;;;2.05;73.70;98617.88;5093023;28;20441;-48
2022/04/03 02:46:50;;;;;;;9.13;8.15;;;;;;;2.08;73.99;98624.56;5093009;28;20032;-47
2022/04/03 02:49:16;;;;;;;9.23;8.27;;;;;;;2.07;73.86;98615.94;5094242;28;20443;-47
2022/04/03 02:51:41;;;;;;;8.85;7.93;;;;;;;2.09;74.11;98610.63;5092753;28;20122;-47
2022/04/03 02:54:07;;;;;;;9.23;8.30;;;;;;;2.10;73.05;98617.44;5094151;28;20047;-47
2022/04/03 02:56:33;;;;;;;9.43;8.43;;;;;;;2.09;73.55;98610.63;5094102;28;20089;-47
2022/04/03 02:58:59;;;;;;;9.00;8.00;;;;;;;2.06;72.97;98609.16;5094058;28;20486;-47
2022/04/03 03:01:24;;;;;;;9.02;8.10;;;;;;;2.05;73.70;98610.09;5093998;28;20032;-47
2022/04/03 03:03:50;;;;;;;9.35;8.43;;;;;;;2.05;73.79;98617.06;5092730;28;20051;-47
2022/04/03 03:06:16;;;;;;;10.13;7.93;;;;;;;2.05;73.51;98622.25;5093956;28;20482;-47
2022/04/03 03:08:42;;;;;;;9.73;8.73;;;;;;;2.04;73.81;98612.88;5093040;28;20109;-48
2022/04/03 03:11:09;;;;;;;9.68;7.82;;;;;;;2.06;73.51;98613.53;5093754;28;20020;-48
2022/04/03 03:13:36;;;;;;;9.55;8.50;;;;;;;2.05;73.86;98614.47;5093808;28;20112;-46
2022/04/03 03:16:02;;;;;;;10.07;9.07;;;;;;;2.06;73.88;98618.72;5093790;28;20034;-48
2022/04/03 03:18:27;;;;;;;10.30;9.07;;;;;;;2.08;74.02;98614.19;5093704;28;20035;-48
2022/04/03 03:20:53;;;;;;;9.88;8.88;;;;;;;2.10;73.91;98620.84;5093595;28;20028;-47
2022/04/03 03:23:19;;;;;;;10.63;9.52;;;;;;;2.13;73.76;98612.81;5093551;28;20107;-48
2022/04/03 03:25:45;;;;;;;11.18;8.48;;;;;;;2.16;73.99;98615.06;5092136;28;20031;-47
2022/04/03 03:28:12;;;;;;;9.18;7.95;;;;;;;2.16;74.02;98615.06;5091793;28;20035;-47
2022/04/03 03:30:39;;;;;;;10.07;9.07;;;;;;;2.16;74.14;98606.50;5093393;28;20072;-47
2022/04/03 03:33:05;;;;;;;10.07;8.98;;;;;;;2.17;74.11;98606.38;5092034;28;20031;-48
2022/04/03 03:35:33;;;;;;;9.57;8.27;;;;;;;2.19;73.83;98614.78;5093340;28;20024;-46
2022/04/03 03:38:00;;;;;;;10.30;8.73;;;;;;;2.17;73.66;98610.72;5093286;28;20027;-47
2022/04/03 03:40:27;;;;;;;11.70;9.07;;;;;;;2.18;74.13;98618.34;5093236;28;20020;-46
2022/04/03 03:42:52;;;;;;;10.85;9.75;;;;;;;2.18;74.08;98612.34;5093501;28;20389;-48
2022/04/03 03:45:18;;;;;;;10.05;8.82;;;;;;;2.16;74.08;98612.50;5093158;28;20020;-47
2022/04/03 03:47:46;;;;;;;11.88;9.27;;;;;;;2.15;73.80;98612.63;5093183;28;20052;-46
2022/04/03 03:50:13;;;;;;;10.55;9.35;;;;;;;2.18;74.38;98623.50;5091663;28;20024;-47
2022/04/03 03:52:39;;;;;;;10.25;8.98;;;;;;;2.18;73.95;98623.50;5093025;28;20028;-48
2022/04/03 03:55:06;;;;;;;10.55;9.40;;;;;;;2.18;73.84;98623.50;5091590;28;20031;-46
2022/04/03 03:57:32;;;;;;;11.15;9.30;;;;;;;2.18;73.97;98628.69;5092960;28;20081;-46
2022/04/03 03:59:58;;;;;;;11.48;10.18;;;;;;;2.22;73.44;98631.00;5092896;28;20024;-47
2022/04/03 04:02:23;;;;;;;10.63;9.40;;;;;;;2.20;73.99;98619.00;5092801;28;20528;-46
2022/04/03 04:04:49;;;;;;;10.77;9.68;;;;;;;2.19;73.68;98635.50;5091513;28;20031;-45
2022/04/03 04:07:15;;;;;;;12.10;10.40;;;;;;;2.21;73.24;98635.34;5092728;28;20067;-47
2022/04/03 04:09:41;;;;;;;11.52;8.45;;;;;;;2.21;73.04;98635.34;5091386;28;20056;-47
2022/04/03 04:12:09;;;;;;;10.65;8.10;;;;;;;2.14;72.66;98635.13;5092539;28;20081;-47
2022/04/03 04:14:36;;;;;;;11.25;9.98;;;;;;;2.11;73.08;98634.59;5092970;28;20070;-46
2022/04/03 04:17:01;;;;;;;11.02;9.23;;;;;;;2.10;73.10;98628.63;5091261;28;20020;-47
2022/04/03 04:19:28;;;;;;;11.80;10.38;;;;;;;2.10;73.30;98630.41;5092418;28;20100;-48
2022/04/03 04:21:54;;;;;;;10.57;9.00;;;;;;;2.09;73.58;98641.69;5092519;28;20024;-47
2022/04/03 04:24:20;;;;;;;10.23;9.23;;;;;;;2.09;72.92;98642.50;5092434;28;20012;-47
2022/04/03 04:26:45;;;;;;;11.10;9.80;;;;;;;2.11;73.38;98639.78;5091077;28;20020;-47
2022/04/03 04:29:11;;;;;;;11.50;8.68;;;;;;;2.09;73.56;98639.91;5092318;28;20044;-45
2022/04/03 04:31:37;;;;;;;10.32;9.23;;;;;;;2.08;72.97;98642.66;5090917;28;20020;-46
2022/04/03 04:34:03;;;;;;;9.73;8.73;;;;;;;2.11;73.18;98648.38;5092276;28;20028;-46
2022/04/03 04:36:29;;;;;;;11.85;9.52;;;;;;;2.11;73.28;98647.53;5092233;28;20059;-46
2022/04/03 04:38:56;;;;;;;11.25;10.05;;;;;;;2.11;73.33;98653.56;5090858;28;20032;-48
2022/04/03 04:41:21;;;;;;;10.90;9.73;;;;;;;2.11;73.38;98657.91;5092186;28;20454;-49
2022/04/03 04:43:47;;;;;;;12.73;9.45;;;;;;;2.11;73.44;98657.91;5092164;28;20059;-49
2022/04/03 04:46:13;;;;;;;10.95;9.45;;;;;;;2.16;73.50;98658.28;5092085;28;20020;-50
2022/04/03 04:48:39;;;;;;;10.15;9.07;;;;;;;2.13;73.07;98641.28;5092089;28;20494;-46
2022/04/03 04:51:04;;;;;;;10.63;9.15;;;;;;;2.09;72.05;98657.22;5091960;28;20032;-48
2022/04/03 04:53:30;;;;;;;10.35;9.35;;;;;;;2.03;71.62;98656.03;5092057;28;20020;-48
2022/04/03 04:55:56;;;;;;;11.00;9.15;;;;;;;2.01;72.03;98660.53;5091966;28;20497;-47
2022/04/03 04:58:22;;;;;;;11.35;10.15;;;;;;;1.96;72.44;98655.81;5090655;28;20107;-47
2022/04/03 05:00:47;;;;;;;10.75;9.65;;;;;;;1.97;72.33;98656.63;5091848;28;20027;-46
2022/04/03 05:03:13;;;;;;;11.77;10.45;;;;;;;2.00;72.40;98661.50;5091939;28;20074;-48
2022/04/03 05:05:40;;;;;;;9.57;8.57;;;;;;;2.05;72.83;98663.66;5090523;28;20052;-47
2022/04/03 05:08:06;;;;;;;10.93;9.82;;;;;;;2.10;73.28;98672.63;5090518;28;20099;-48
2022/04/03 05:10:32;;;;;;;11.82;10.63;;;;;;;2.15;73.06;98677.34;5091788;28;20099;-47
2022/04/03 05:13:00;;;;;;;11.63;10.52;;;;;;;2.16;73.06;98668.63;5091801;28;20393;-47
2022/04/03 05:15:29;;;;;;;11.57;10.20;;;;;;;2.16;73.04;98673.81;5090443;28;20099;-46
2022/04/03 05:17:54;;;;;;;12.35;10.48;;;;;;;2.13;72.59;98679.28;5091770;28;20125;-46
2022/04/03 05:20:20;;;;;;;12.80;10.23;;;;;;;2.13;72.63;98679.28;5090397;28;20115;-47
2022/04/03 05:22:46;;;;;;;11.65;10.05;;;;;;;2.12;72.36;98686.22;5090429;28;20078;-48
2022/04/03 05:25:12;;;;;;;11.85;10.65;;;;;;;2.11;72.27;98681.19;5091652;28;20066;-49
2022/04/03 05:27:42;;;;;;;10.95;9.85;;;;;;;2.10;72.25;98675.22;5090351;28;20027;-48
2022/04/03 05:30:09;;;;;;;12.00;10.80;;;;;;;2.05;72.32;98667.06;5091362;28;20501;-46
2022/04/03 05:32:36;;;;;;;11.60;10.25;;;;;;;1.99;71.71;98689.19;5095793;28;20537;-48
2022/04/03 05:35:03;;;;;;;10.93;9.82;;;;;;;1.96;71.65;98684.28;5094307;28;20024;-46
2022/04/03 05:37:30;;;;;;;11.90;10.68;;;;;;;1.96;71.85;98689.47;5094300;28;20024;-47
2022/04/03 05:39:55;;;;;;;12.55;11.10;;;;;;;1.98;72.20;98695.31;5095547;28;20032;-47
2022/04/03 05:42:22;;;;;;;11.45;10.25;;;;;;;1.99;71.48;98694.34;5095506;28;20543;-49
2022/04/03 05:44:48;;;;;;;13.23;10.75;;;;;;;2.02;72.14;98693.25;5095490;28;20024;-47
2022/04/03 05:47:17;;;;;;;13.02;11.27;;;;;;;2.02;72.29;98690.66;5095438;28;20398;-48
2022/04/03 05:49:44;;;;;;;14.15;12.02;;;;;;;2.07;72.90;98691.00;5095436;28;20024;-48
2022/04/03 05:52:09;;;;;;;12.32;11.02;;;;;;;2.10;72.80;98685.56;5095356;28;20027;-48
2022/04/03 05:54:35;;;;;;;13.68;11.73;;;;;;;2.12;72.58;98683.63;5095298;28;20028;-48
2022/04/03 05:57:01;;;;;;;12.57;11.18;;;;;;;2.13;72.36;98685.28;5093918;28;20031;-48
2022/04/03 05:59:27;;;;;;;11.82;10.60;;;;;;;2.12;72.27;98691.41;5095227;28;20444;-47
2022/04/03 06:01:52;;;;;;;13.73;10.38;;;;;;;2.10;71.19;98690.75;5093795;28;20085;-48
2022/04/03 06:04:18;;;;;;;12.10;10.32;;;;;;;2.04;70.77;98698.28;5093808;28;20024;-46
2022/04/03 06:06:44;;;;;;;12.57;10.15;;;;;;;2.02;71.02;98695.84;5095074;28;20024;-47
2022/04/03 06:09:09;;;;;;;14.10;11.27;;;;;;;2.06;71.81;98699.75;5094998;28;20455;-47
2022/04/03 06:11:35;;;;;;;13.27;11.82;;;;;;;2.07;71.45;98697.97;5093556;28;20126;-47
2022/04/03 06:14:01;;;;;;;13.50;11.70;;;;;;;2.04;71.44;98699.09;5095028;28;20477;-48
2022/04/03 06:16:27;;;;;;;16.02;12.07;;;;;;;2.10;72.13;98700.28;5094855;28;20100;-47
2022/04/03 06:18:53;;;;;;;26.27;12.57;;;;;;;2.16;71.56;98705.69;5094857;28;20027;-48
2022/04/03 06:21:20;;;;;;;23.38;11.45;;;;;;;2.22;71.72;98706.06;5093495;28;20027;-46
2022/04/03 06:23:46;;;;;;;13.20;11.80;;;;;;;2.28;71.29;98708.88;5093399;28;20064;-48
2022/04/03 06:26:12;;;;;;;20.23;10.73;;;;;;;2.31;70.81;98710.34;5094714;28;20020;-47
2022/04/03 06:28:38;;;;;;;12.65;10.45;;;;;;;2.32;70.15;98710.22;5094484;28;20450;-47
2022/04/03 06:31:04;;;;;;;15.65;11.25;;;;;;;2.34;70.02;98715.25;5094568;28;20067;-48
2022/04/03 06:33:30;;;;;;;14.40;12.02;;;;;;;2.38;70.45;98720.00;5094882;28;20444;-46
2022/04/03 06:35:56;;;;;;;14.00;11.23;;;;;;;2.44;69.52;98726.38;5094493;28;20028;-46
2022/04/03 06:38:22;;;;;;;17.33;11.40;;;;;;;2.50;69.94;98723.19;5094477;28;20024;-47
2022/04/03 06:40:51;;;;;;;13.30;10.88;;;;;;;2.59;70.48;98726.66;5094407;28;20516;-48
2022/04/03 06:43:26;;;;;;;12.52;11.23;;;;;;;2.70;70.73;98723.03;5091706;28;20051;-47
2022/04/03 06:45:53;;;;;;;15.73;12.20;;;;;;;2.81;70.59;98722.78;5094653;28;20085;-47
2022/04/03 06:48:20;;;;;;;13.48;11.00;;;;;;;2.89;70.52;98732.41;5092935;28;20031;-47
2022/04/03 06:50:46;;;;;;;14.60;11.07;;;;;;;2.97;70.12;98733.28;5092812;28;20028;-47
2022/04/03 06:53:12;;;;;;;16.85;11.93;;;;;;;3.06;69.52;98728.16;5092871;28;20639;-46
2022/04/03 06:55:38;;;;;;;16.25;11.18;;;;;;;3.08;68.37;98728.81;5094138;28;20114;-46
2022/04/03 06:58:03;;;;;;;14.00;12.15;;;;;;;3.07;68.50;98730.59;5092778;28;20131;-47
2022/04/03 07:00:30;;;;;;;13.25;10.68;;;;;;;3.15;68.40;98727.28;5092733;28;20027;-47
2022/04/03 07:02:56;;;;;;;18.63;11.60;;;;;;;3.31;68.71;98732.56;5094238;28;20028;-46
2022/04/03 07:05:22;;;;;;;13.25;11.20;;;;;;;3.49;69.24;98729.09;5093949;28;20478;-46
2022/04/03 07:07:52;;;;;;;12.77;11.00;;;;;;;3.62;68.48;98734.66;5094183;28;20020;-47
2022/04/03 07:10:18;;;;;;;20.50;11.85;;;;;;;3.73;67.57;98737.00;5093784;28;20053;-46
2022/04/03 07:12:44;;;;;;;12.75;10.43;;;;;;;3.92;67.86;98735.94;5093833;28;20062;-47
2022/04/03 07:15:12;;;;;;;13.02;10.18;;;;;;;4.02;67.72;98741.00;5093716;28;20107;-46
2022/04/03 07:17:44;;;;;;;12.05;10.77;;;;;;;3.97;67.55;98741.50;5092668;28;20462;-47
2022/04/03 07:20:14;;;;;;;15.20;11.27;;;;;;;4.10;67.15;98743.63;5093639;28;20020;-49
2022/04/03 07:22:44;;;;;;;11.70;10.48;;;;;;;4.33;67.17;98738.69;5093674;28;20531;-49
2022/04/03 07:25:11;;;;;;;13.18;11.55;;;;;;;4.50;66.59;98749.91;5092247;28;20043;-47
2022/04/03 07:27:38;;;;;;;13.45;11.25;;;;;;;4.63;66.05;98741.66;5093564;28;20502;-47
2022/04/03 07:30:05;;;;;;;12.40;10.95;;;;;;;4.75;66.46;98737.78;5093175;28;20363;-47
2022/04/03 07:32:31;;;;;;;15.23;11.77;;;;;;;4.99;66.49;98743.97;5093464;28;20020;-46
2022/04/03 07:34:57;;;;;;;12.32;10.55;;;;;;;5.26;66.86;98742.78;5092016;28;20024;-46
2022/04/03 07:37:23;;;;;;;13.88;10.80;;;;;;;5.55;65.46;98744.03;5093314;28;20016;-46
2022/04/03 07:39:48;;;;;;;14.13;11.60;;;;;;;5.84;64.57;98743.47;5093300;28;20019;-46
2022/04/03 07:42:14;;;;;;;13.02;11.25;;;;;;;6.17;64.29;98736.34;5091937;28;20500;-49
2022/04/03 07:44:40;;;;;;;14.07;10.70;;;;;;;6.46;64.45;98747.13;5091884;28;20028;-49
2022/04/03 07:47:06;;;;;;;12.30;11.00;;;;;;;6.63;62.50;98738.22;5093189;28;20107;-47
2022/04/03 07:49:31;;;;;;;11.52;9.95;;;;;;;6.83;62.83;98746.38;5093144;28;20489;-48
2022/04/03 07:51:57;;;;;;;12.98;9.88;;;;;;;6.88;61.04;98746.69;5092978;28;20028;-47
2022/04/03 07:54:23;;;;;;;11.45;10.25;;;;;;;6.91;59.88;98748.13;5092698;28;20027;-47
2022/04/03 07:56:48;;;;;;;12.27;10.98;;;;;;;6.91;59.01;98745.53;5092971;28;20111;-48
2022/04/03 07:59:14;;;;;;;13.80;10.35;;;;;;;6.92;59.57;98752.34;5091696;28;20013;-47
2022/04/03 08:01:40;;;;;;;12.63;9.40;;;;;;;6.95;58.81;98746.78;5092879;28;20111;-49
2022/04/03 08:04:06;;;;;;;11.52;10.27;;;;;;;6.72;56.77;98746.78;5092860;28;20024;-49
2022/04/03 08:06:31;;;;;;;11.45;9.85;;;;;;;6.60;57.74;98751.63;5091498;28;20034;-49
2022/04/03 08:08:57;;;;;;;12.48;11.18;;;;;;;6.51;57.82;98758.66;5091436;28;20495;-49
2022/04/03 08:11:23;;;;;;;11.98;10.18;;;;;;;6.53;59.08;98768.91;5092644;28;20027;-48
2022/04/03 08:13:48;;;;;;;14.40;10.52;;;;;;;6.64;57.74;98762.47;5092645;28;20389;-49
2022/04/03 08:16:15;;;;;;;11.35;10.13;;;;;;;6.76;55.64;98761.09;5091299;28;20028;-49
2022/04/03 08:18:42;;;;;;;10.57;9.40;;;;;;;6.68;55.98;98758.53;5092596;28;20035;-49
2022/04/03 08:21:08;;;;;;;10.85;9.60;;;;;;;6.72;56.98;98768.47;5092560;28;20110;-49
2022/04/03 08:23:34;;;;;;;12.23;10.43;;;;;;;6.65;56.59;98771.94;5091203;28;20569;-47
2022/04/03 08:25:59;;;;;;;12.00;10.68;;;;;;;6.57;56.17;98773.59;5092429;28;20078;-48
2022/04/03 08:28:25;;;;;;;11.57;9.35;;;;;;;6.67;56.57;98770.78;5092552;28;20044;-47
2022/04/03 08:30:52;;;;;;;11.73;10.52;;;;;;;6.64;56.40;98771.16;5092336;28;20107;-48
2022/04/03 08:33:18;;;;;;;11.18;10.02;;;;;;;6.65;56.49;98783.19;5092358;28;20024;-47
2022/04/03 08:35:46;;;;;;;10.23;9.13;;;;;;;6.65;56.80;98787.59;5092281;28;20156;-46
2022/04/03 08:38:13;;;;;;;11.45;10.23;;;;;;;6.53;55.82;98785.38;5092309;28;20393;-47
2022/04/03 08:40:38;;;;;;;11.63;10.43;;;;;;;6.51;56.20;98789.13;5092165;28;20051;-48
2022/04/03 08:43:05;;;;;;;11.95;10.52;;;;;;;6.65;57.02;98798.03;5092232;28;20059;-47
2022/04/03 08:45:31;;;;;;;11.10;9.98;;;;;;;7.47;58.27;98792.19;5090834;28;20024;-48
2022/04/03 08:47:59;;;;;;;10.85;9.23;;;;;;;8.20;54.32;98791.38;5090767;28;20398;-47
2022/04/03 08:50:27;;;;;;;10.77;9.73;;;;;;;8.12;53.16;98799.31;5091988;28;20394;-46
2022/04/03 08:52:54;;;;;;;12.32;10.20;;;;;;;8.07;52.50;98806.09;5092062;28;20020;-48
2022/04/03 08:55:21;;;;;;;10.48;9.38;;;;;;;8.79;52.57;98802.75;5091939;28;20434;-47
2022/04/03 08:57:47;;;;;;;11.48;10.27;;;;;;;9.04;50.49;98799.78;5090688;28;20024;-48
2022/04/03 09:00:14;;;;;;;10.90;9.10;;;;;;;8.91;49.45;98797.81;5091959;28;20031;-46
2022/04/03 09:02:41;;;;;;;10.50;9.50;;;;;;;8.68;50.17;98805.84;5090579;28;20073;-47
2022/04/03 09:05:09;;;;;;;10.45;9.40;;;;;;;8.65;50.31;98806.22;5091076;28;20016;-50
2022/04/03 09:07:35;;;;;;;9.60;8.15;;;;;;;8.40;50.20;98802.09;5091926;28;20551;-48
2022/04/03 09:10:10;;;;;;;9.95;8.95;;;;;;;7.85;50.26;98807.78;5091773;28;20051;-48
2022/04/03 09:12:46;;;;;;;10.10;8.90;;;;;;;7.48;50.70;98809.47;5091787;28;20452;-49
2022/04/03 09:15:14;;;;;;;11.52;9.52;;;;;;;7.29;51.39;98811.59;5090559;28;20029;-46
2022/04/03 09:17:44;;;;;;;10.35;9.35;;;;;;;7.95;53.78;98817.00;5091824;28;20115;-47
2022/04/03 09:20:19;;;;;;;11.02;8.88;;;;;;;8.77;49.10;98808.19;5091759;28;20044;-46
2022/04/03 09:22:49;;;;;;;10.63;9.52;;;;;;;8.72;49.41;98802.69;5090464;28;20031;-49
2022/04/03 09:25:17;;;;;;;10.35;9.35;;;;;;;8.66;50.10;98808.66;5091680;28;20032;-46
2022/04/03 09:27:58;;;;;;;10.18;8.48;;;;;;;8.73;48.72;98808.72;5091685;28;20052;-48
2022/04/03 09:30:32;;;;;;;10.57;9.48;;;;;;;8.28;49.38;98815.81;5091299;28;20155;-48
2022/04/03 09:32:59;;;;;;;11.00;8.93;;;;;;;7.98;50.44;98800.94;5090376;28;20036;-48
2022/04/03 09:35:31;;;;;;;10.80;9.05;;;;;;;7.62;48.86;98808.69;5091657;28;20069;-49
2022/04/03 09:38:15;;;;;;;11.35;9.30;;;;;;;7.29;50.23;98803.75;5091691;28;20034;-49
2022/04/03 09:40:49;;;;;;;10.07;9.00;;;;;;;7.51;52.14;98811.75;5091622;28;20024;-48
2022/04/03 09:43:23;;;;;;;9.48;8.07;;;;;;;8.07;51.73;98812.16;5090322;28;20035;-48
2022/04/03 09:45:54;;;;;;;9.80;7.90;;;;;;;8.19;49.48;98808.09;5091558;28;20055;-47
2022/04/03 09:48:40;;;;;;;10.20;8.63;;;;;;;8.02;48.43;98809.25;5090241;28;20095;-47
2022/04/03 09:51:22;;;;;;;9.00;8.20;;;;;;;8.69;49.04;98813.53;5089602;28;20040;-48
2022/04/03 09:54:00;;;;;;;9.45;8.55;;;;;;;8.94;47.09;98821.81;5091502;28;20059;-47
2022/04/03 09:56:31;;;;;;;9.15;8.25;;;;;;;9.08;46.84;98822.78;5091501;28;20082;-47
2022/04/03 09:59:06;;;;;;;9.93;8.20;;;;;;;9.07;46.91;98817.72;5091480;28;20028;-47
2022/04/03 10:01:35;;;;;;;9.23;8.27;;;;;;;9.04;47.89;98815.50;5091325;28;20533;-47
2022/04/03 10:04:09;;;;;;;9.15;8.25;;;;;;;9.36;46.57;98809.72;5091358;28;20449;-48
2022/04/03 10:06:38;;;;;;;8.82;7.53;;;;;;;10.09;47.54;98809.38;5091375;28;20111;-48
2022/04/03 10:09:04;;;;;;;8.52;7.60;;;;;;;11.29;44.14;98801.06;5091358;28;20027;-48
2022/04/03 10:11:30;;;;;;;8.55;7.68;;;;;;;11.43;43.27;98807.94;5089838;28;20128;-49
2022/04/03 10:13:57;;;;;;;9.05;7.55;;;;;;;11.67;42.86;98808.31;5091285;28;20024;-48
2022/04/03 10:16:23;;;;;;;8.77;7.88;;;;;;;12.26;43.27;98811.88;5090360;28;20409;-49
2022/04/03 10:18:50;;;;;;;8.30;7.57;;;;;;;13.29;41.57;98801.19;5094857;28;20020;-48
2022/04/03 10:21:32;;;;;;;8.13;7.32;;;;;;;13.50;39.83;98800.00;5094818;28;20020;-48
2022/04/03 10:24:09;;;;;;;8.63;7.78;;;;;;;13.45;39.69;98793.75;5094807;28;20035;-49
2022/04/03 10:26:38;;;;;;;9.60;7.13;;;;;;;13.30;37.64;98796.69;5094783;28;20036;-48
2022/04/03 10:29:09;;;;;;;7.57;6.80;;;;;;;13.07;39.10;98805.97;5094416;28;20032;-49
2022/04/03 10:31:37;;;;;;;7.78;7.07;;;;;;;12.97;38.65;98798.53;5094597;28;20032;-49
2022/04/03 10:34:02;;;;;;;6.97;6.38;;;;;;;13.49;37.36;98793.09;5093415;28;20027;-48
2022/04/03 10:36:34;;;;;;;6.53;5.93;;;;;;;14.97;37.69;98785.13;5094557;28;20021;-49
2022/04/03 10:39:04;;;;;;;7.85;7.15;;;;;;;16.02;35.52;98786.22;5094586;28;20028;-49
2022/04/03 10:41:48;;;;;;;7.78;6.95;;;;;;;15.71;33.47;98782.06;5094401;28;20031;-49
2022/04/03 10:44:23;;;;;;;7.72;6.93;;;;;;;14.47;34.34;98783.53;5093197;28;20498;-49
2022/04/03 10:47:03;;;;;;;8.02;7.30;;;;;;;13.20;35.93;98791.91;5094314;28;20024;-49
2022/04/03 10:49:31;;;;;;;8.43;7.63;;;;;;;12.49;36.44;98792.94;5092955;28;20078;-48
2022/04/03 10:52:02;;;;;;;7.45;6.82;;;;;;;12.48;37.42;98792.13;5094200;28;20098;-49
2022/04/03 10:54:32;;;;;;;8.23;7.40;;;;;;;12.54;37.01;98788.66;5094224;28;20443;-48
2022/04/03 10:57:33;;;;;;;7.65;6.95;;;;;;;12.13;36.99;98789.84;5092858;28;20028;-49
2022/04/03 11:00:13;;;;;;;7.55;6.85;;;;;;;11.91;37.68;98788.47;5092815;28;20024;-48
2022/04/03 11:02:44;;;;;;;7.40;6.68;;;;;;;11.95;36.88;98793.16;5094077;28;20034;-49
2022/04/03 11:05:22;;;;;;;8.13;6.95;;;;;;;11.54;37.55;98790.75;5092847;28;20024;-48
2022/04/03 11:07:50;;;;;;;7.85;7.05;;;;;;;11.31;38.65;98786.72;5093951;28;20016;-48
2022/04/03 11:10:35;;;;;;;7.40;6.60;;;;;;;11.27;39.20;98788.13;5093852;28;20023;-48
2022/04/03 11:13:01;;;;;;;7.63;6.82;;;;;;;10.95;39.56;98785.28;5092518;28;20060;-49
2022/04/03 11:15:55;;;;;;;6.95;6.25;;;;;;;10.52;39.16;98782.97;5093806;28;20082;-49
2022/04/03 11:18:27;;;;;;;8.20;7.40;;;;;;;10.18;39.81;98783.81;5093782;28;20028;-51
2022/04/03 11:21:14;;;;;;;8.00;7.30;;;;;;;9.92;40.92;98792.34;5093714;28;20568;-49
2022/04/03 11:23:44;;;;;;;7.43;6.72;;;;;;;9.59;40.02;98788.50;5092293;28;20464;-49
2022/04/03 11:26:10;;;;;;;8.98;6.97;;;;;;;9.20;40.78;98784.59;5093665;28;20019;-48
2022/04/03 11:28:36;;;;;;;7.75;7.00;;;;;;;8.89;42.32;98792.78;5092526;28;20048;-48
2022/04/03 11:31:04;;;;;;;7.28;6.57;;;;;;;8.64;42.85;98781.06;5093520;28;20501;-48
2022/04/03 11:33:30;;;;;;;8.45;7.40;;;;;;;8.31;43.26;98789.28;5093449;28;20025;-48
2022/04/03 11:36:06;;;;;;;8.20;7.20;;;;;;;8.02;43.97;98782.31;5092276;28;20028;-49